National Weather Service United States Department of Commerce
Click Here for Latest Airport Weather Warnings
 
Latest Huntsville TAF


533
FTUS44 KHUN 192332 CCB
TAFHSV
TAF COR
KHSV 192332Z 2000/2024 VRB04KT P6SM SCT035 BKN250
FM201500 24007KT P6SM SCT040 BKN090 PROB30 2017/2021 4SM -TSRA
BKN040CB
FM202100 22008KT P6SM SCT050 BKN100 PROB30 2021/2024 3SM TSRA
BKN025CB=

Latest Muscle Shoals TAF


000
FTUS44 KHUN 192332 CCA
TAFMSL
TAF COR
KMSL 192332Z 2000/2024 VRB03KT P6SM SCT040 BKN250
FM201500 25005KT P6SM SCT040 BKN090 PROB30 2016/2020 4SM -TSRA
BKN040CB
FM202000 23007KT P6SM SCT050 BKN100 PROB30 2020/2024 3SM TSRA
BKN025CB=


Back to Main Huntsville Weather Forecast Office Page